Time;durP1;ratioP1;P1;durP2;ratioP2;P2;SDS_P1;SDS_P2;PMS_P1;PMS_P2;Temp;Humidity;BMP_temperature;BMP_pressure;BME280_temperature;BME280_humidity;BME280_pressure;Samples;Min_cycle;Max_cycle;Signal;HPM_P1;HPM_P2
2023/07/12 00:00:20;;;;;;;32.50;2.17;;;;;;;26.47;54.01;98754.41;7309408;19;130257;-36
2023/07/12 00:02:46;;;;;;;24.98;1.55;;;;;;;26.47;53.41;98749.13;7311146;19;131126;-33
2023/07/12 00:05:11;;;;;;;75.43;4.60;;;;;;;26.48;54.17;98734.94;7309325;19;130191;-36
2023/07/12 00:07:36;;;;;;;39.33;2.33;;;;;;;26.52;53.93;98735.38;7311533;19;129216;-35
2023/07/12 00:10:02;;;;;;;23.93;1.50;;;;;;;26.51;54.31;98720.56;7311741;19;131527;-31
2023/07/12 00:12:28;;;;;;;13.45;1.00;;;;;;;26.51;53.62;98723.19;7310373;19;131078;-33
2023/07/12 00:14:53;;;;;;;25.93;1.77;;;;;;;26.51;53.83;98721.34;7308644;19;128863;-36
2023/07/12 00:17:21;;;;;;;102.93;6.03;;;;;;;26.52;53.68;98703.72;7309895;19;130020;-34
2023/07/12 00:19:47;;;;;;;29.92;1.95;;;;;;;26.22;50.10;98703.09;7310888;19;130227;-35
2023/07/12 00:22:12;;;;;;;56.97;3.53;;;;;;;25.96;50.67;98694.97;7310833;19;130781;-29
2023/07/12 00:24:37;;;;;;;39.83;2.30;;;;;;;25.85;49.93;98690.19;7311908;19;130029;-37
2023/07/12 00:27:03;;;;;;;45.47;2.93;;;;;;;25.95;53.54;98690.69;7310936;19;129575;-34
2023/07/12 00:29:28;;;;;;;45.43;2.73;;;;;;;26.23;53.36;98673.09;7309504;19;131175;-34
2023/07/12 00:31:53;;;;;;;54.20;3.33;;;;;;;26.27;53.86;98649.81;7309369;19;129642;-38
2023/07/12 00:34:19;;;;;;;67.20;3.93;;;;;;;26.39;53.72;98667.56;7315307;19;128918;-29
2023/07/12 00:36:44;;;;;;;33.63;2.10;;;;;;;26.45;53.65;98666.78;7318745;19;128864;-33
2023/07/12 00:39:12;;;;;;;25.33;1.60;;;;;;;26.36;53.71;98646.84;7317065;19;129230;-34
2023/07/12 00:42:02;;;;;;;34.40;1.98;;;;;;;26.53;53.96;98653.44;7314114;19;130384;-33
2023/07/12 00:44:50;;;;;;;56.25;3.67;;;;;;;26.54;53.96;98655.06;7316190;19;130476;-29
2023/07/12 00:47:17;;;;;;;40.38;2.67;;;;;;;26.51;54.07;98655.44;7316431;19;130817;-33
2023/07/12 00:49:46;;;;;;;40.83;2.40;;;;;;;26.51;54.06;98650.19;7315283;19;130563;-35
2023/07/12 00:52:15;;;;;;;33.40;2.03;;;;;;;26.52;54.44;98638.66;7317762;19;131022;-35
2023/07/12 00:54:57;;;;;;;44.70;2.70;;;;;;;26.53;54.35;98631.53;7313980;19;128978;-36
2023/07/12 00:57:27;;;;;;;29.27;1.77;;;;;;;26.52;54.28;98625.47;7316683;19;129634;-35
2023/07/12 00:59:56;;;;;;;27.75;1.75;;;;;;;26.05;50.10;98627.97;7316877;19;130273;-30
2023/07/12 01:02:23;;;;;;;47.75;2.72;;;;;;;25.92;50.23;98627.84;7315994;19;129384;-33
2023/07/12 01:04:49;;;;;;;;;;;;;;;25.87;49.72;98624.16;7317976;19;129277;-37
2023/07/12 01:07:17;;;;;;;34.40;2.20;;;;;;;26.10;53.52;98601.09;7317388;19;129394;-34
2023/07/12 01:09:43;;;;;;;60.42;3.72;;;;;;;26.35;53.60;98612.78;7313918;19;131066;-35
2023/07/12 01:12:09;;;;;;;38.73;2.27;;;;;;;26.41;53.58;98615.44;7316298;19;130342;-29
2023/07/12 01:14:35;;;;;;;73.72;4.32;;;;;;;26.44;53.66;98601.91;7314190;19;130983;-35
2023/07/12 01:17:05;;;;;;;29.47;2.17;;;;;;;26.47;53.95;98606.78;7315136;19;130173;-33
2023/07/12 01:19:31;;;;;;;36.25;2.17;;;;;;;26.47;53.88;98601.50;7314698;19;131598;-34
2023/07/12 01:21:57;;;;;;;;;;;;;;;26.60;54.07;98606.03;7317474;19;130569;-35
2023/07/12 01:24:24;;;;;;;16.38;1.23;;;;;;;26.53;53.91;98607.81;7317222;19;129162;-36
2023/07/12 01:26:53;;;;;;;42.05;2.47;;;;;;;26.52;54.46;98599.09;7316983;19;129228;-35
2023/07/12 01:29:19;;;;;;;63.35;3.90;;;;;;;26.51;53.91;98600.09;7314999;19;130207;-38
2023/07/12 01:31:45;;;;;;;60.90;3.73;;;;;;;26.53;53.68;98597.25;7316079;19;130248;-34
2023/07/12 01:34:13;;;;;;;40.73;2.40;;;;;;;26.53;54.24;98606.00;7315321;19;128963;-33
2023/07/12 01:36:38;;;;;;;54.08;3.30;;;;;;;26.52;53.91;98617.56;7316077;19;129536;-34
2023/07/12 01:39:05;;;;;;;25.47;1.53;;;;;;;26.03;50.29;98647.63;7316095;19;130133;-35
2023/07/12 01:41:31;;;;;;;32.42;2.03;;;;;;;25.95;50.67;98653.81;7312826;19;131490;-31
2023/07/12 01:43:57;;;;;;;38.28;2.42;;;;;;;25.90;49.67;98645.66;7314580;19;129016;-35
2023/07/12 01:46:23;;;;;;;28.07;1.67;;;;;;;26.22;53.34;98637.22;7316889;19;129657;-33
2023/07/12 01:48:48;;;;;;;62.73;3.97;;;;;;;26.38;53.29;98644.00;7313288;19;129640;-36
2023/07/12 01:51:17;;;;;;;38.43;2.40;;;;;;;26.43;53.79;98647.69;7312701;19;130378;-38
2023/07/12 01:53:43;;;;;;;75.82;4.25;;;;;;;26.46;53.78;98642.03;7312618;19;128920;-37
2023/07/12 01:56:09;;;;;;;15.07;1.10;;;;;;;26.49;53.77;98628.50;7315291;19;128954;-34
2023/07/12 01:58:34;;;;;;;47.77;2.93;;;;;;;26.51;53.93;98623.81;7313914;19;130300;-34
2023/07/12 02:01:00;;;;;;;38.60;2.37;;;;;;;26.52;53.62;98620.19;7311869;19;131067;-35
2023/07/12 02:03:26;;;;;;;69.53;4.23;;;;;;;26.54;53.45;98627.91;7314041;19;129497;-38
2023/07/12 02:05:52;;;;;;;43.85;2.83;;;;;;;26.54;53.52;98633.97;7315661;19;129580;-34
2023/07/12 02:08:18;;;;;;;26.60;1.65;;;;;;;26.55;53.58;98629.53;7314739;19;130337;-34
2023/07/12 02:10:44;;;;;;;37.77;2.27;;;;;;;26.55;54.12;98635.63;7313639;19;130287;-33
2023/07/12 02:13:10;;;;;;;30.53;1.87;;;;;;;26.54;54.14;98647.16;7313747;19;128996;-36
2023/07/12 02:15:36;;;;;;;27.45;1.65;;;;;;;26.55;54.43;98648.78;7315225;19;129565;-34
2023/07/12 02:18:03;;;;;;;60.73;3.83;;;;;;;26.15;51.11;98651.34;7311942;19;129718;-35
2023/07/12 02:20:28;;;;;;;46.13;2.55;;;;;;;25.94;49.93;98662.72;7313425;19;129238;-34
2023/07/12 02:22:54;;;;;;;49.80;2.83;;;;;;;25.89;49.50;98667.75;7314543;19;129311;-42
2023/07/12 02:25:20;;;;;;;29.30;1.73;;;;;;;26.05;53.57;98664.88;7315462;19;129304;-32
2023/07/12 02:27:46;;;;;;;11.13;0.93;;;;;;;26.21;53.34;98664.59;7313507;19;129648;-34
2023/07/12 02:30:16;;;;;;;53.20;3.03;;;;;;;26.41;53.21;98691.88;7311997;19;129503;-36
2023/07/12 02:32:43;;;;;;;31.60;1.88;;;;;;;26.45;53.44;98698.41;7314271;19;130162;-36
2023/07/12 02:35:08;;;;;;;34.63;2.33;;;;;;;26.50;53.69;98698.66;7311843;19;129110;-34
2023/07/12 02:37:34;;;;;;;29.27;1.77;;;;;;;26.50;54.11;98696.00;7313598;19;130307;-32
2023/07/12 02:40:00;;;;;;;54.57;3.33;;;;;;;26.44;54.11;98686.25;7313131;19;130674;-35
2023/07/12 02:42:25;;;;;;;29.33;1.73;;;;;;;26.56;54.27;98705.78;7314068;19;129374;-41
2023/07/12 02:44:51;;;;;;;12.63;1.10;;;;;;;26.56;53.39;98705.78;7313393;19;129318;-30
2023/07/12 02:47:16;;;;;;;43.42;2.67;;;;;;;26.56;53.82;98705.78;7311324;19;129942;-35
2023/07/12 02:49:42;;;;;;;46.50;2.77;;;;;;;26.56;54.38;98695.22;7312463;19;130932;-35
2023/07/12 02:52:08;;;;;;;61.43;3.73;;;;;;;26.54;54.29;98686.69;7313129;19;128983;-34
2023/07/12 02:54:34;;;;;;;;;;;;;;;26.66;54.02;98697.53;7311802;19;130774;-34
2023/07/12 02:57:00;;;;;;;26.55;1.75;;;;;;;26.39;51.22;98688.66;7312508;19;130455;-43
2023/07/12 02:59:26;;;;;;;70.50;3.83;;;;;;;26.06;50.17;98692.84;7312039;19;130491;-37
2023/07/12 03:01:52;;;;;;;28.80;1.70;;;;;;;25.97;50.54;98691.31;7314471;19;129152;-42
2023/07/12 03:04:18;;;;;;;51.00;3.33;;;;;;;25.94;50.45;98682.97;7311551;19;128909;-42
2023/07/12 03:06:44;;;;;;;28.80;1.88;;;;;;;26.28;53.15;98668.06;7312980;19;129502;-39
2023/07/12 03:09:10;;;;;;;76.22;4.43;;;;;;;26.42;53.77;98676.91;7310876;19;129918;-35
2023/07/12 03:11:36;;;;;;;25.00;1.63;;;;;;;26.46;53.57;98657.84;7310624;19;129049;-38
2023/07/12 03:14:02;;;;;;;21.10;1.47;;;;;;;26.51;53.36;98655.44;7311463;19;129531;-34
2023/07/12 03:16:27;;;;;;;37.17;2.37;;;;;;;26.53;54.07;98648.16;7311478;19;129168;-33
2023/07/12 03:18:53;;;;;;;43.03;2.60;;;;;;;26.55;53.74;98648.78;7311788;19;129174;-34
2023/07/12 03:21:19;;;;;;;58.80;3.60;;;;;;;26.56;54.13;98647.78;7308675;19;131129;-36
2023/07/12 03:23:45;;;;;;;20.75;1.40;;;;;;;26.57;54.09;98653.88;7312939;19;128872;-38
2023/07/12 03:26:10;;;;;;;13.07;0.87;;;;;;;26.58;53.73;98644.94;7312254;19;130879;-43
2023/07/12 03:28:36;;;;;;;33.87;2.00;;;;;;;26.58;54.28;98645.75;7311432;19;130955;-36
2023/07/12 03:31:04;;;;;;;32.83;2.10;;;;;;;26.56;53.65;98647.78;7310763;19;129425;-31
2023/07/12 03:33:31;;;;;;;43.35;2.83;;;;;;;26.58;53.96;98651.03;7310086;19;130103;-31
2023/07/12 03:35:56;;;;;;;32.20;1.83;;;;;;;26.37;51.09;98648.50;7312083;19;129900;-32
2023/07/12 03:38:25;;;;;;;64.07;3.83;;;;;;;26.07;50.97;98640.97;7310477;19;129667;-42
2023/07/12 03:40:55;;;;;;;16.33;1.13;;;;;;;25.89;49.36;98633.50;7311646;19;129236;-31
2023/07/12 03:43:20;;;;;;;53.50;3.65;;;;;;;25.97;53.11;98643.91;7311497;19;130212;-34
2023/07/12 03:45:46;;;;;;;30.20;2.07;;;;;;;26.22;53.35;98618.78;7312197;19;130605;-33
2023/07/12 03:48:11;;;;;;;42.40;2.50;;;;;;;26.45;53.52;98639.59;7311674;19;129542;-37
2023/07/12 03:50:47;;;;;;;48.57;3.00;;;;;;;26.51;53.62;98644.91;7308906;19;129579;-38
2023/07/12 03:53:12;;;;;;;21.75;1.48;;;;;;;26.51;53.44;98638.84;7311853;19;129096;-35
2023/07/12 03:55:45;;;;;;;15.70;1.00;;;;;;;26.56;54.18;98649.63;7311706;19;130489;-34
2023/07/12 03:58:14;;;;;;;42.03;2.45;;;;;;;26.56;53.89;98649.63;7311352;19;130429;-37
2023/07/12 04:00:40;;;;;;;31.95;1.98;;;;;;;26.57;53.76;98653.88;7310946;19;129870;-40
2023/07/12 04:03:06;;;;;;;18.02;1.33;;;;;;;26.57;53.87;98654.69;7312103;19;130116;-36
2023/07/12 04:05:36;;;;;;;34.97;2.13;;;;;;;26.59;53.96;98665.84;7311021;19;130542;-38
2023/07/12 04:08:02;;;;;;;73.28;4.38;;;;;;;26.58;53.60;98666.84;7306493;19;129751;-36
2023/07/12 04:10:27;;;;;;;44.77;2.80;;;;;;;26.59;54.37;98665.03;7310530;19;129917;-39
2023/07/12 04:12:53;;;;;;;22.37;1.70;;;;;;;26.60;53.76;98662.22;7311102;19;129769;-34
2023/07/12 04:15:18;;;;;;;54.83;2.97;;;;;;;26.29;50.62;98667.09;7309562;19;129410;-35
2023/07/12 04:17:43;;;;;;;40.77;2.50;;;;;;;25.93;49.70;98661.09;7311330;19;130207;-31
2023/07/12 04:20:10;;;;;;;54.10;3.17;;;;;;;25.94;49.91;98675.06;7310460;19;130304;-35
2023/07/12 04:22:35;;;;;;;30.23;1.75;;;;;;;26.02;53.22;98670.50;7309997;19;130172;-33
2023/07/12 04:25:00;;;;;;;34.27;2.03;;;;;;;26.33;53.42;98665.69;7310890;19;129209;-47
2023/07/12 04:27:26;;;;;;;42.63;2.50;;;;;;;26.47;53.49;98677.13;7310829;19;130476;-42
2023/07/12 04:29:51;;;;;;;17.53;1.23;;;;;;;26.49;53.89;98668.03;7310705;19;129453;-34
2023/07/12 04:32:16;;;;;;;62.80;3.87;;;;;;;26.44;53.61;98657.25;7310542;19;128941;-34
2023/07/12 04:34:42;;;;;;;43.47;2.60;;;;;;;26.57;54.03;98665.25;7309010;19;131088;-36
2023/07/12 04:37:07;;;;;;;75.80;4.57;;;;;;;26.59;53.57;98654.50;7309864;19;129573;-43
2023/07/12 04:39:32;;;;;;;43.93;2.83;;;;;;;26.60;53.44;98659.56;7310235;19;128969;-34
2023/07/12 04:41:58;;;;;;;24.37;1.60;;;;;;;26.49;53.73;98641.69;7310584;19;129393;-32
2023/07/12 04:44:23;;;;;;;45.90;2.60;;;;;;;26.61;53.67;98661.19;7309211;19;130406;-39
2023/07/12 04:46:48;;;;;;;28.70;1.70;;;;;;;26.61;54.31;98660.41;7310050;19;130034;-35
2023/07/12 04:49:14;;;;;;;29.07;1.90;;;;;;;26.62;53.59;98668.13;7309798;19;128835;-33
2023/07/12 04:51:39;;;;;;;68.47;4.23;;;;;;;26.62;54.27;98662.00;7306173;19;128938;-36
2023/07/12 04:54:05;;;;;;;37.00;2.30;;;;;;;26.37;50.56;98656.41;7308976;19;129642;-34
2023/07/12 04:56:30;;;;;;;63.30;3.83;;;;;;;26.13;51.73;98667.34;7308820;19;130571;-32
2023/07/12 04:58:56;;;;;;;39.17;2.43;;;;;;;25.95;50.13;98666.97;7309642;19;129806;-32
2023/07/12 05:01:21;;;;;;;28.93;1.73;;;;;;;25.97;52.66;98654.44;7308134;19;129402;-33
2023/07/12 05:03:47;;;;;;;71.97;4.10;;;;;;;26.32;53.44;98640.34;7307784;19;132607;-38
2023/07/12 05:06:13;;;;;;;13.00;0.93;;;;;;;26.44;53.26;98638.81;7311350;19;130326;-38
2023/07/12 05:08:39;;;;;;;24.07;1.57;;;;;;;26.49;53.45;98641.69;7310196;19;129850;-36
2023/07/12 05:11:04;;;;;;;67.80;4.00;;;;;;;26.54;53.17;98638.44;7306115;19;130742;-32
2023/07/12 05:13:30;;;;;;;49.90;2.70;;;;;;;26.57;53.55;98654.69;7309473;19;129378;-39
2023/07/12 05:15:55;;;;;;;43.33;2.63;;;;;;;26.58;53.64;98637.84;7309625;19;131112;-38
2023/07/12 05:18:22;;;;;;;25.33;1.47;;;;;;;26.60;53.69;98642.94;7310580;19;129835;-36
2023/07/12 05:20:49;;;;;;;30.75;1.85;;;;;;;26.61;53.52;98647.22;7315751;19;129430;-33
2023/07/12 05:23:14;;;;;;;60.35;3.72;;;;;;;26.60;53.91;98649.03;7315344;19;130115;-36
2023/07/12 05:25:50;;;;;;;33.20;2.13;;;;;;;26.63;54.12;98648.63;7316170;19;130058;-38
2023/07/12 05:28:16;;;;;;;70.90;4.50;;;;;;;26.59;53.68;98657.94;7314696;19;129381;-36
2023/07/12 05:30:42;;;;;;;27.58;1.75;;;;;;;26.61;53.97;98671.75;7314713;19;129667;-35
2023/07/12 05:33:07;;;;;;;40.27;2.23;;;;;;;26.31;50.62;98670.31;7315694;19;130103;-34
2023/07/12 05:35:32;;;;;;;32.47;2.07;;;;;;;26.05;49.73;98678.03;7313027;19;130057;-36
2023/07/12 05:37:58;;;;;;;35.83;2.10;;;;;;;25.96;49.44;98675.69;7315455;19;128827;-38
2023/07/12 05:40:24;;;;;;;39.67;2.77;;;;;;;26.08;52.65;98680.28;7312474;19;129497;-38
2023/07/12 05:42:50;;;;;;;51.20;2.83;;;;;;;26.36;53.27;98675.84;7315556;19;130137;-33
2023/07/12 05:45:15;;;;;;;21.60;1.47;;;;;;;26.47;53.12;98680.59;7315777;19;129528;-33
2023/07/12 05:47:47;;;;;;;28.17;1.90;;;;;;;26.52;53.53;98686.09;7315021;19;130105;-37
2023/07/12 05:50:14;;;;;;;27.48;1.60;;;;;;;26.55;53.64;98687.53;7314593;19;129395;-40
2023/07/12 05:52:40;;;;;;;69.85;4.18;;;;;;;26.58;53.93;98687.94;7314080;19;130257;-31
2023/07/12 05:55:08;;;;;;;25.00;1.50;;;;;;;26.57;53.53;98691.59;7314158;19;129664;-31
2023/07/12 05:57:33;;;;;;;24.67;1.52;;;;;;;26.61;53.40;98697.31;7315373;19;129087;-44
2023/07/12 06:00:00;;;;;;;42.37;2.40;;;;;;;26.62;53.89;98714.75;7312513;19;130007;-36
2023/07/12 06:02:25;;;;;;;46.53;2.67;;;;;;;26.62;54.15;98715.56;7315321;19;131031;-37
2023/07/12 06:04:51;;;;;;;73.07;4.47;;;;;;;26.63;53.99;98716.38;7315047;19;131004;-43
2023/07/12 06:07:16;;;;;;;12.70;1.03;;;;;;;26.63;54.27;98719.81;7314488;19;130255;-34
2023/07/12 06:09:41;;;;;;;33.90;2.10;;;;;;;26.63;53.89;98716.38;7315003;19;129213;-33
2023/07/12 06:12:08;;;;;;;44.70;2.70;;;;;;;26.35;50.18;98716.38;7313637;19;130232;-39
2023/07/12 06:14:33;;;;;;;13.07;0.93;;;;;;;26.03;50.39;98716.13;7313733;19;131778;-33
2023/07/12 06:16:59;;;;;;;83.63;4.73;;;;;;;25.94;49.20;98725.09;7313337;19;130229;-37
2023/07/12 06:19:24;;;;;;;26.90;1.70;;;;;;;26.04;52.85;98725.66;7313513;19;129008;-30
2023/07/12 06:21:50;;;;;;;56.23;2.97;;;;;;;26.37;53.17;98729.38;7313936;19;130031;-33
2023/07/12 06:24:15;;;;;;;55.93;3.57;;;;;;;26.49;53.29;98735.75;7313247;19;129800;-40
2023/07/12 06:26:41;;;;;;;17.37;1.10;;;;;;;26.55;53.66;98740.25;7314186;19;128857;-34
2023/07/12 06:29:06;;;;;;;52.40;3.37;;;;;;;26.57;53.21;98739.06;7313272;19;128996;-37
2023/07/12 06:31:31;;;;;;;41.67;2.40;;;;;;;26.60;53.64;98746.59;7310471;19;130651;-33
2023/07/12 06:34:00;;;;;;;24.30;1.63;;;;;;;26.61;53.39;98750.84;7314044;19;130147;-34
2023/07/12 06:36:26;;;;;;;37.28;2.22;;;;;;;26.62;53.76;98752.50;7312713;19;129417;-34
2023/07/12 06:38:51;;;;;;;40.40;2.40;;;;;;;26.64;53.40;98749.66;7313385;19;129005;-31
2023/07/12 06:41:16;;;;;;;73.23;4.37;;;;;;;26.64;53.78;98750.44;7310948;19;129081;-35
2023/07/12 06:43:42;;;;;;;17.17;1.23;;;;;;;26.54;53.60;98734.16;7314741;19;129904;-35
2023/07/12 06:46:07;;;;;;;30.57;1.70;;;;;;;26.64;53.84;98753.09;7314168;19;130428;-32
2023/07/12 06:48:33;;;;;;;45.40;2.63;;;;;;;26.64;54.28;98753.09;7312499;19;129920;-31
2023/07/12 06:50:58;;;;;;;32.90;1.93;;;;;;;26.58;52.09;98760.94;7312485;19;131226;-39
2023/07/12 06:53:26;;;;;;;55.90;3.43;;;;;;;26.09;49.90;98766.22;7312781;19;130640;-36
2023/07/12 06:55:52;;;;;;;36.03;2.05;;;;;;;25.98;50.11;98776.44;7311229;19;128885;-34
2023/07/12 06:58:17;;;;;;;40.00;2.23;;;;;;;25.93;51.29;98777.00;7312461;19;128880;-33
2023/07/12 07:00:43;;;;;;;23.97;1.47;;;;;;;26.32;53.44;98785.28;7311779;19;129089;-35
2023/07/12 07:03:10;;;;;;;28.07;1.70;;;;;;;26.47;53.51;98791.31;7313971;19;129610;-36
2023/07/12 07:05:40;;;;;;;64.10;3.95;;;;;;;26.54;53.60;98794.00;7313009;19;129115;-33
2023/07/12 07:08:06;;;;;;;46.35;2.60;;;;;;;26.57;53.69;98797.06;7313579;19;130617;-33
2023/07/12 07:10:32;;;;;;;59.13;3.53;;;;;;;26.60;53.75;98796.69;7311262;19;130225;-38
2023/07/12 07:12:57;;;;;;;26.70;1.73;;;;;;;26.62;53.58;98794.69;7313443;19;129596;-35
2023/07/12 07:15:23;;;;;;;65.23;3.97;;;;;;;26.63;53.77;98785.75;7310113;19;130721;-37
2023/07/12 07:17:48;;;;;;;85.60;4.93;;;;;;;26.63;54.23;98791.03;7312525;19;131175;-33
2023/07/12 07:20:13;;;;;;;31.43;1.90;;;;;;;26.65;53.51;98790.81;7312177;19;129499;-37
2023/07/12 07:22:39;;;;;;;67.70;3.83;;;;;;;26.65;53.80;98794.31;7311890;19;129588;-39
2023/07/12 07:25:05;;;;;;;22.03;1.47;;;;;;;26.58;53.54;98779.41;7312640;19;130307;-35
2023/07/12 07:27:30;;;;;;;40.73;2.27;;;;;;;26.63;53.83;98793.66;7311268;19;130561;-33
2023/07/12 07:29:56;;;;;;;30.27;1.83;;;;;;;26.64;53.88;98791.84;7310286;19;130959;-32
2023/07/12 07:32:21;;;;;;;32.07;1.80;;;;;;;26.23;50.35;98798.78;7312030;19;129265;-39
2023/07/12 07:34:47;;;;;;;50.67;2.97;;;;;;;26.08;49.84;98801.47;7310814;19;129314;-37
2023/07/12 07:37:12;;;;;;;63.33;3.77;;;;;;;25.99;49.63;98807.84;7312028;19;129138;-32
2023/07/12 07:39:38;;;;;;;28.20;1.67;;;;;;;26.36;53.55;98810.25;7311918;19;129400;-41
2023/07/12 07:42:03;;;;;;;38.77;2.43;;;;;;;26.51;52.89;98807.56;7310600;19;131131;-40
2023/07/12 07:44:28;;;;;;;31.07;1.83;;;;;;;26.47;53.32;98801.03;7311642;19;129402;-30
2023/07/12 07:46:54;;;;;;;95.43;5.60;;;;;;;26.59;53.49;98810.84;7310579;19;129385;-34
2023/07/12 07:49:19;;;;;;;27.30;1.73;;;;;;;26.62;53.53;98805.22;7313216;19;129514;-38
2023/07/12 07:51:45;;;;;;;12.77;1.00;;;;;;;26.64;53.65;98807.66;7312163;19;130880;-35
2023/07/12 07:54:10;;;;;;;80.53;4.90;;;;;;;26.65;53.46;98810.13;7311366;19;129324;-34
2023/07/12 07:56:35;;;;;;;36.57;2.17;;;;;;;26.66;53.40;98801.22;7313136;19;129419;-36
2023/07/12 07:59:01;;;;;;;51.83;3.13;;;;;;;26.66;53.74;98801.22;7310751;19;130777;-36
2023/07/12 08:01:26;;;;;;;26.30;1.63;;;;;;;26.67;54.34;98802.03;7309823;19;130377;-41
2023/07/12 08:03:52;;;;;;;46.07;2.63;;;;;;;26.67;54.26;98802.88;7311672;19;129286;-35
2023/07/12 08:06:17;;;;;;;45.67;2.83;;;;;;;26.68;53.77;98799.22;7311886;19;130770;-32
2023/07/12 08:08:42;;;;;;;27.80;1.73;;;;;;;26.63;53.07;98798.94;7310495;19;130877;-30
2023/07/12 08:11:08;;;;;;;51.90;3.10;;;;;;;26.18;49.95;98796.69;7308397;19;130207;-33
2023/07/12 08:13:34;;;;;;;45.00;2.50;;;;;;;26.12;50.39;98794.84;7312024;19;130001;-38
2023/07/12 08:16:00;;;;;;;30.43;1.97;;;;;;;26.03;49.46;98793.31;7309740;19;129437;-39
2023/07/12 08:18:25;;;;;;;56.37;3.23;;;;;;;26.38;53.53;98792.44;7310490;19;131692;-34
2023/07/12 08:20:55;;;;;;;25.10;1.53;;;;;;;26.53;53.61;98793.16;7309260;19;129494;-41
2023/07/12 08:23:21;;;;;;;81.05;4.68;;;;;;;26.45;53.21;98780.13;7310654;19;129237;-32
2023/07/12 08:25:49;;;;;;;21.02;1.45;;;;;;;26.52;53.58;98796.81;7311756;19;129005;-39
2023/07/12 08:28:14;;;;;;;36.92;2.28;;;;;;;26.63;53.54;98800.75;7309592;19;129493;-46
2023/07/12 08:30:40;;;;;;;6.30;0.73;;;;;;;26.65;53.44;98794.31;7309482;19;131011;-34
2023/07/12 08:33:06;;;;;;;58.33;3.47;;;;;;;26.54;53.41;98765.78;7311060;19;128999;-34
2023/07/12 08:35:31;;;;;;;50.60;3.20;;;;;;;26.67;53.29;98787.03;7308757;19;130214;-36
2023/07/12 08:37:57;;;;;;;37.97;2.23;;;;;;;26.57;53.42;98781.25;7309698;19;130070;-42
2023/07/12 08:40:23;;;;;;;30.30;1.97;;;;;;;26.67;53.54;98800.22;7308833;19;131344;-40
2023/07/12 08:42:50;;;;;;;38.63;2.33;;;;;;;26.67;54.12;98818.69;7311417;19;129487;-41
2023/07/12 08:45:21;;;;;;;17.30;1.15;;;;;;;26.68;54.62;98822.94;7311269;19;129253;-38
2023/07/12 08:47:49;;;;;;;52.72;3.22;;;;;;;26.63;53.24;98817.38;7309409;19;130247;-35
2023/07/12 08:50:16;;;;;;;26.85;1.60;;;;;;;26.15;50.47;98809.44;7309797;19;130382;-34
2023/07/12 08:52:44;;;;;;;82.00;4.70;;;;;;;25.98;49.82;98806.19;7309090;19;129854;-35
2023/07/12 08:55:22;;;;;;;33.95;1.98;;;;;;;26.05;53.72;98807.13;7315828;19;128936;-35
2023/07/12 08:57:55;;;;;;;41.05;2.47;;;;;;;26.40;53.70;98816.78;7315221;19;130727;-35
2023/07/12 09:00:23;;;;;;;16.15;1.02;;;;;;;26.52;53.45;98815.28;7315861;19;130762;-33
2023/07/12 09:02:49;;;;;;;42.72;2.53;;;;;;;26.57;53.38;98819.97;7316819;19;130613;-36
2023/07/12 09:05:21;;;;;;;45.40;2.47;;;;;;;26.51;53.40;98805.72;7316691;19;131000;-37
2023/07/12 09:07:49;;;;;;;60.55;3.78;;;;;;;26.63;53.46;98822.66;7316497;19;130501;-34
2023/07/12 09:10:26;;;;;;;26.38;1.55;;;;;;;26.67;53.84;98829.22;7314416;19;129997;-38
2023/07/12 09:12:52;;;;;;;81.43;4.88;;;;;;;26.65;53.83;98823.31;7315410;19;130575;-37
2023/07/12 09:15:17;;;;;;;41.47;2.27;;;;;;;26.67;53.87;98829.22;7316260;19;129217;-35
2023/07/12 09:17:44;;;;;;;69.57;4.13;;;;;;;26.68;54.32;98836.13;7315206;19;130317;-39
2023/07/12 09:20:28;;;;;;;29.08;1.83;;;;;;;26.72;54.21;98840.03;7316475;19;130279;-33
2023/07/12 09:22:54;;;;;;;57.17;3.50;;;;;;;26.68;53.71;98830.84;7315990;19;128820;-31
2023/07/12 09:25:22;;;;;;;43.37;2.43;;;;;;;26.65;54.25;98831.25;7316624;19;128859;-32
2023/07/12 09:27:48;;;;;;;58.95;3.65;;;;;;;26.29;51.19;98848.09;7315218;19;130152;-35
2023/07/12 09:30:19;;;;;;;39.17;2.23;;;;;;;26.12;51.18;98844.91;7316277;19;129197;-35
2023/07/12 09:32:48;;;;;;;22.92;1.40;;;;;;;25.99;49.46;98839.47;7314479;19;129042;-47
2023/07/12 09:35:37;;;;;;;25.90;1.55;;;;;;;26.27;53.50;98845.66;7314462;19;128959;-32
2023/07/12 09:38:08;;;;;;;59.80;3.63;;;;;;;26.45;52.98;98850.47;7313985;19;132892;-37
2023/07/12 09:40:50;;;;;;;26.95;1.67;;;;;;;26.59;53.53;98855.69;7315420;19;130727;-32
2023/07/12 09:43:18;;;;;;;61.78;3.78;;;;;;;26.60;53.93;98849.41;7314737;19;129460;-32
2023/07/12 09:46:08;;;;;;;53.33;3.03;;;;;;;26.63;54.21;98859.59;7316237;19;129465;-35
2023/07/12 09:48:36;;;;;;;37.13;2.08;;;;;;;26.66;53.33;98859.22;7312004;19;131386;-32
2023/07/12 09:51:15;;;;;;;62.55;3.75;;;;;;;26.70;53.94;98849.94;7313975;19;130429;-37
2023/07/12 09:53:47;;;;;;;29.52;1.73;;;;;;;26.68;53.79;98859.84;7316304;19;130997;-36
2023/07/12 09:56:29;;;;;;;40.17;2.33;;;;;;;26.70;54.01;98860.50;7311727;19;129216;-35
2023/07/12 09:59:26;;;;;;;33.67;1.98;;;;;;;26.73;54.39;98852.19;7314732;19;130511;-42
2023/07/12 10:02:29;;;;;;;28.38;1.70;;;;;;;26.73;54.53;98848.72;7315006;19;129124;-34
2023/07/12 10:04:59;;;;;;;45.40;2.50;;;;;;;26.68;54.01;98854.59;7312480;19;128825;-37
2023/07/12 10:07:34;;;;;;;24.02;1.42;;;;;;;26.29;51.99;98841.03;7315266;19;129681;-35
2023/07/12 10:10:00;;;;;;;43.40;2.42;;;;;;;26.13;50.17;98837.81;7315218;19;131113;-37
2023/07/12 10:13:01;;;;;;;32.37;2.00;;;;;;;26.06;50.70;98843.00;7314741;19;132152;-36
2023/07/12 10:15:31;;;;;;;24.52;1.60;;;;;;;26.21;53.78;98817.44;7313681;19;129030;-36
2023/07/12 10:17:57;;;;;;;37.95;2.22;;;;;;;26.49;53.00;98831.47;7313904;19;130383;-34
2023/07/12 10:20:24;;;;;;;32.87;1.93;;;;;;;26.55;53.49;98825.44;7313321;19;130180;-34
2023/07/12 10:22:53;;;;;;;24.48;1.45;;;;;;;26.61;53.68;98824.66;7316305;19;130999;-40
2023/07/12 10:25:34;;;;;;;25.75;1.63;;;;;;;26.65;54.09;98820.69;7315262;19;128890;-34
2023/07/12 10:28:14;;;;;;;25.20;1.60;;;;;;;26.67;53.94;98818.69;7315503;19;129056;-39
2023/07/12 10:30:40;;;;;;;30.30;1.77;;;;;;;26.68;53.53;98819.47;7314569;19;129232;-39
2023/07/12 10:33:30;;;;;;;34.30;2.00;;;;;;;26.71;54.04;98812.00;7316172;19;130369;-36
2023/07/12 10:36:02;;;;;;;57.20;3.10;;;;;;;26.70;53.79;98822.75;7312742;19;128952;-33
2023/07/12 10:38:28;;;;;;;61.80;3.85;;;;;;;26.69;53.92;98824.56;7313796;19;131778;-36
2023/07/12 10:41:00;;;;;;;26.97;1.50;;;;;;;26.70;54.02;98822.75;7312781;19;130115;-34
2023/07/12 10:43:36;;;;;;;62.35;3.95;;;;;;;26.71;54.06;98819.91;7313685;19;129972;-37
2023/07/12 10:46:12;;;;;;;29.48;1.70;;;;;;;26.60;52.68;98823.06;7312754;19;128859;-37
2023/07/12 10:48:43;;;;;;;37.53;2.17;;;;;;;26.12;49.56;98823.81;7313000;19;130535;-33
2023/07/12 10:51:36;;;;;;;16.27;1.20;;;;;;;26.08;50.36;98819.91;7311746;19;129056;-37
2023/07/12 10:54:03;;;;;;;47.38;2.60;;;;;;;26.10;52.70;98820.53;7314049;19;130333;-36
2023/07/12 10:56:49;;;;;;;58.45;3.50;;;;;;;26.40;53.80;98822.06;7310647;19;130176;-37
2023/07/12 10:59:33;;;;;;;23.67;1.45;;;;;;;26.57;53.34;98828.72;7313163;19;129863;-41
2023/07/12 11:02:04;;;;;;;27.13;1.67;;;;;;;26.59;53.57;98826.69;7313651;19;131055;-32
2023/07/12 11:04:29;;;;;;;56.38;3.63;;;;;;;26.62;53.20;98847.41;7311988;19;129859;-41
2023/07/12 11:06:57;;;;;;;33.67;2.00;;;;;;;26.65;53.98;98852.34;7311929;19;129448;-32
2023/07/12 11:09:23;;;;;;;52.90;2.97;;;;;;;26.66;53.33;98847.84;7312885;19;129267;-35
2023/07/12 11:11:58;;;;;;;22.67;1.30;;;;;;;26.70;53.91;98849.94;7313853;19;133488;-38
2023/07/12 11:14:43;;;;;;;29.70;1.73;;;;;;;26.60;53.56;98827.50;7311893;19;129668;-37
2023/07/12 11:17:11;;;;;;;74.20;4.75;;;;;;;26.66;53.77;98837.31;7310419;19;129028;-32
2023/07/12 11:19:39;;;;;;;62.08;3.67;;;;;;;26.70;54.42;98855.22;7310811;19;129811;-33